createdAt,value
2022-11-16T00:00:41.150Z,1072.87
2022-11-16T00:02:48.415Z,1070.12
2022-11-16T00:04:56.809Z,1065.14
2022-11-16T00:07:03.526Z,1051.77
2022-11-16T00:09:27.321Z,1057.23
2022-11-16T00:11:33.145Z,1056.03
2022-11-16T00:13:41.540Z,1040.42
2022-11-16T00:15:58.676Z,1066.54
2022-11-16T00:20:24.076Z,1030.39
2022-11-16T00:22:30.779Z,1056.47
2022-11-16T00:24:37.305Z,1053.20
2022-11-16T00:26:43.388Z,1027.60
2022-11-16T00:28:50.967Z,1089.33
2022-11-16T00:31:02.675Z,1103.41
2022-11-16T00:33:10.924Z,1089.69
2022-11-16T00:35:17.608Z,1052.55
2022-11-16T00:37:26.024Z,1056.11
2022-11-16T00:39:31.895Z,1029.17
2022-11-16T00:41:38.438Z,1017.17
2022-11-16T00:43:44.342Z,1009.26
2022-11-16T00:45:50.495Z,997.08
2022-11-16T00:48:00.467Z,1005.65
2022-11-16T00:50:08.806Z,997.58
2022-11-16T00:52:14.514Z,979.84
2022-11-16T00:54:23.636Z,938.55
2022-11-16T00:56:29.578Z,959.50
2022-11-16T00:58:35.724Z,959.51
2022-11-16T01:00:47.487Z,948.22
2022-11-16T01:02:54.753Z,938.11
2022-11-16T01:05:00.812Z,902.69
2022-11-16T01:07:09.268Z,905.26
2022-11-16T01:09:15.054Z,904.76
2022-11-16T01:11:36.052Z,936.43
2022-11-16T01:13:42.635Z,940.13
2022-11-16T01:15:51.626Z,929.46
2022-11-16T01:18:00.084Z,959.35
2022-11-16T01:20:11.286Z,937.41
2022-11-16T01:22:17.033Z,897.78
2022-11-16T01:24:22.983Z,885.37
2022-11-16T01:26:32.490Z,891.10
2022-11-16T01:28:38.509Z,899.45
2022-11-16T01:30:51.510Z,885.19
2022-11-16T01:32:58.128Z,884.43
2022-11-16T01:35:07.173Z,895.74
2022-11-16T01:37:13.872Z,925.77
2022-11-16T01:39:22.307Z,900.95
2022-11-16T01:41:35.451Z,876.96
2022-11-16T01:44:01.902Z,888.26
2022-11-16T01:46:14.558Z,919.41
2022-11-16T01:48:29.028Z,909.58
2022-11-16T01:50:35.471Z,905.45
2022-11-16T01:52:50.636Z,900.19
2022-11-16T01:54:56.154Z,919.03
2022-11-16T01:57:14.604Z,917.12
2022-11-16T01:59:29.647Z,909.91
2022-11-16T02:01:36.492Z,891.00
2022-11-16T02:03:44.463Z,917.29
2022-11-16T02:06:17.939Z,906.72
2022-11-16T02:09:04.862Z,905.32
2022-11-16T02:11:48.262Z,895.37
2022-11-16T02:14:13.908Z,931.31
2022-11-16T02:16:38.814Z,921.44
2022-11-16T02:19:02.895Z,934.26
2022-11-16T02:21:32.902Z,937.08
2022-11-16T02:24:22.838Z,910.46
2022-11-16T02:27:14.408Z,931.00
2022-11-16T02:29:35.646Z,857.57
2022-11-16T02:31:52.568Z,880.02
2022-11-16T02:34:03.704Z,858.61
2022-11-16T02:36:18.627Z,859.80
2022-11-16T02:38:32.828Z,876.76
2022-11-16T02:40:47.963Z,861.76
2022-11-16T02:43:10.281Z,863.52
2022-11-16T02:45:27.416Z,860.18
2022-11-16T02:47:40.025Z,858.83
2022-11-16T02:49:58.611Z,869.93
2022-11-16T02:52:07.231Z,860.55
2022-11-16T02:54:19.641Z,855.12
2022-11-16T02:56:31.521Z,863.93
2022-11-16T02:58:37.300Z,872.53
2022-11-16T03:00:59.228Z,888.78
2022-11-16T03:03:28.700Z,868.72
2022-11-16T03:05:43.546Z,841.25
2022-11-16T03:08:12.048Z,805.36
2022-11-16T03:10:35.489Z,801.87
2022-11-16T03:12:46.200Z,814.73
2022-11-16T03:14:59.745Z,761.53
2022-11-16T03:17:20.817Z,754.64
